Terminal Aerodrome Forecast
Issued by NWS Louisville, KY

Home | Current Version | Previous Version | Text Only | Print | Product List | Glossary On
Versions: 1 2 3 4 5 6 7 8 9 10 11 12 13 14
000
FTUS43 KLMK 262300
TAFBWG
TAF
KBWG 262330Z 2700/2724 32008KT P6SM VCSH BKN050
     FM270100 34006KT P6SM VCSH BKN025
     FM271000 35004KT P6SM SCT025 BKN035
     FM271500 02004KT P6SM SCT025 BKN040=

USA.gov is the U.S. government's official web portal to all federal, state and local government web resources and services.